Time,TemperatureF,DewpointF,PressureIn,WindDirection,WindDirectionDegrees,WindSpeedMPH,WindSpeedGustMPH,Humidity,HourlyPrecipIn,Conditions,Clouds,dailyrainin,SoftwareType,DateUTC
2014-03-01 00:00:00,51.8,50.1,29.50,SE,128,17.0,21.0,94,0.00,,---,0.95,VWS V15.00,2014-03-01 08:00:00,
2014-03-01 00:15:00,51.8,49.8,29.51,SE,138,14.0,19.0,93,0.00,,---,0.00,VWS V15.00,2014-03-01 08:15:00,
2014-03-01 00:30:00,51.9,49.9,29.52,SE,134,13.0,18.0,93,0.00,,---,0.00,VWS V15.00,2014-03-01 08:30:00,
2014-03-01 00:45:00,51.8,49.8,29.52,SE,130,13.0,19.0,93,0.00,,---,0.00,VWS V15.00,2014-03-01 08:45:00,
2014-03-01 01:00:00,51.9,49.7,29.53,SE,139,11.0,18.0,92,0.00,,---,0.00,VWS V15.00,2014-03-01 09:00:00,
2014-03-01 01:15:00,51.9,49.7,29.53,SE,140,12.0,19.0,92,0.00,,---,0.00,VWS V15.00,2014-03-01 09:15:00,
2014-03-01 01:30:00,52.0,49.8,29.54,SE,136,14.0,19.0,92,0.00,,---,0.00,VWS V15.00,2014-03-01 09:30:00,
2014-03-01 01:45:00,52.2,50.0,29.54,SE,141,10.0,17.0,92,0.00,,---,0.00,VWS V15.00,2014-03-01 09:45:00,
2014-03-01 02:00:00,52.3,50.0,29.55,SE,132,14.0,20.0,92,0.00,,---,0.00,VWS V15.00,2014-03-01 10:00:00,
2014-03-01 02:15:00,52.3,50.0,29.55,SE,136,10.0,18.0,92,0.01,,---,0.01,VWS V15.00,2014-03-01 10:15:00,
2014-03-01 02:30:00,52.4,49.8,29.55,SE,127,15.0,19.0,91,0.01,,---,0.01,VWS V15.00,2014-03-01 10:30:00,
2014-03-01 02:45:00,52.8,50.0,29.55,SE,133,19.0,21.0,90,0.01,,---,0.01,VWS V15.00,2014-03-01 10:45:00,
2014-03-01 03:00:00,52.9,49.8,29.55,SE,128,21.0,25.0,89,0.01,,---,0.01,VWS V15.00,2014-03-01 11:00:00,
2014-03-01 03:15:00,52.9,49.8,29.54,SE,141,12.0,26.0,89,0.01,,---,0.01,VWS V15.00,2014-03-01 11:15:00,
2014-03-01 03:30:00,52.8,49.7,29.55,SE,128,15.0,25.0,89,0.00,,---,0.01,VWS V15.00,2014-03-01 11:30:00,
2014-03-01 03:45:00,52.8,49.7,29.55,SE,130,19.0,20.0,89,0.00,,---,0.01,VWS V15.00,2014-03-01 11:45:00,
2014-03-01 04:00:00,52.7,49.6,29.56,SE,125,14.0,21.0,89,0.00,,---,0.01,VWS V15.00,2014-03-01 12:00:00,
2014-03-01 04:15:00,52.8,49.3,29.55,SE,125,12.0,19.0,88,0.00,,---,0.01,VWS V15.00,2014-03-01 12:15:00,
2014-03-01 04:30:00,52.6,49.2,29.56,ESE,116,4.0,15.0,88,0.00,,---,0.01,VWS V15.00,2014-03-01 12:30:00,
2014-03-01 04:45:00,52.3,48.9,29.56,ESE,113,0.0,9.0,88,0.00,,---,0.01,VWS V15.00,2014-03-01 12:45:00,
2014-03-01 05:00:00,51.9,48.5,29.56,East,88,3.0,6.0,88,0.00,,---,0.01,VWS V15.00,2014-03-01 13:00:00,
2014-03-01 05:15:00,51.7,48.3,29.56,East,93,1.0,8.0,88,0.00,,---,0.01,VWS V15.00,2014-03-01 13:15:00,
2014-03-01 05:30:00,51.5,48.1,29.57,East,91,2.0,5.0,88,0.00,,---,0.01,VWS V15.00,2014-03-01 13:30:00,
2014-03-01 05:45:00,51.4,47.7,29.57,East,91,0.0,4.0,87,0.00,,---,0.01,VWS V15.00,2014-03-01 13:45:00,
2014-03-01 06:00:00,51.1,47.4,29.57,ENE,61,3.0,5.0,87,0.00,,---,0.01,VWS V15.00,2014-03-01 14:00:00,
2014-03-01 06:15:00,50.9,47.5,29.58,ENE,61,1.0,5.0,88,0.00,,---,0.01,VWS V15.00,2014-03-01 14:15:00,
2014-03-01 06:30:00,50.9,47.8,29.59,NNE,22,4.0,5.0,89,0.00,,---,0.01,VWS V15.00,2014-03-01 14:30:00,
2014-03-01 06:45:00,50.8,48.0,29.59,North,350,6.0,7.0,90,0.00,,---,0.01,VWS V15.00,2014-03-01 14:45:00,
2014-03-01 07:00:00,50.8,48.0,29.61,NNW,348,4.0,7.0,90,0.00,,---,0.01,VWS V15.00,2014-03-01 15:00:00,
2014-03-01 07:15:00,50.9,48.4,29.61,NNW,346,0.0,8.0,91,0.00,,---,0.01,VWS V15.00,2014-03-01 15:15:00,
2014-03-01 07:30:00,51.2,48.7,29.62,NNW,346,4.0,6.0,91,0.00,,---,0.01,VWS V15.00,2014-03-01 15:30:00,
2014-03-01 07:45:00,51.5,49.3,29.62,NNW,346,0.0,5.0,92,0.00,,---,0.01,VWS V15.00,2014-03-01 15:45:00,
2014-03-01 08:00:00,52.3,50.0,29.63,NNW,346,0.0,4.0,92,0.00,,---,0.01,VWS V15.00,2014-03-01 16:00:00,
2014-03-01 08:15:00,53.2,50.9,29.63,NNW,346,1.0,4.0,92,0.00,,---,0.01,VWS V15.00,2014-03-01 16:15:00,
2014-03-01 08:30:00,53.7,51.1,29.64,NNW,337,2.0,6.0,91,0.00,,---,0.01,VWS V15.00,2014-03-01 16:30:00,
2014-03-01 08:45:00,54.0,51.4,29.65,NNW,342,2.0,7.0,91,0.00,,---,0.01,VWS V15.00,2014-03-01 16:45:00,
2014-03-01 09:00:00,54.5,51.6,29.66,NNW,348,4.0,7.0,90,0.00,,---,0.01,VWS V15.00,2014-03-01 17:00:00,
2014-03-01 09:15:00,55.3,52.1,29.65,NNW,348,5.0,6.0,89,0.00,,---,0.01,VWS V15.00,2014-03-01 17:15:00,
2014-03-01 09:30:00,56.3,52.5,29.66,NNW,348,0.0,5.0,87,0.00,,---,0.01,VWS V15.00,2014-03-01 17:30:00,
2014-03-01 09:45:00,58.0,50.5,29.67,NNE,13,3.0,5.0,76,0.00,,---,0.01,VWS V15.00,2014-03-01 17:45:00,
2014-03-01 10:00:00,59.6,51.0,29.67,SE,129,6.0,9.0,73,0.00,,---,0.01,VWS V15.00,2014-03-01 18:00:00,
2014-03-01 10:15:00,59.7,51.4,29.67,SE,127,8.0,11.0,74,0.00,,---,0.01,VWS V15.00,2014-03-01 18:15:00,
2014-03-01 10:30:00,60.5,50.7,29.68,ESE,115,6.0,9.0,70,0.00,,---,0.01,VWS V15.00,2014-03-01 18:30:00,
2014-03-01 10:45:00,60.4,51.0,29.68,SSE,149,15.0,19.0,71,0.00,,---,0.01,VWS V15.00,2014-03-01 18:45:00,
2014-03-01 11:00:00,61.3,52.2,29.68,SE,132,6.0,15.0,72,0.00,,---,0.01,VWS V15.00,2014-03-01 19:00:00,
2014-03-01 11:15:00,61.8,53.4,29.68,ESE,106,9.0,20.0,74,0.00,,---,0.01,VWS V15.00,2014-03-01 19:15:00,
2014-03-01 11:30:00,61.5,52.8,29.67,ESE,115,4.0,17.0,73,0.00,,---,0.01,VWS V15.00,2014-03-01 19:30:00,
2014-03-01 11:45:00,62.3,53.2,29.67,SE,130,7.0,16.0,72,0.00,,---,0.01,VWS V15.00,2014-03-01 19:45:00,
2014-03-01 12:00:00,63.3,54.1,29.67,ESE,122,12.0,18.0,72,0.00,,---,0.01,VWS V15.00,2014-03-01 20:00:00,
2014-03-01 12:15:00,64.2,54.6,29.67,SE,131,12.0,16.0,71,0.00,,---,0.01,VWS V15.00,2014-03-01 20:15:00,
2014-03-01 12:30:00,64.6,54.6,29.67,SE,140,13.0,19.0,70,0.00,,---,0.01,VWS V15.00,2014-03-01 20:30:00,
2014-03-01 12:45:00,64.3,52.7,29.67,SE,131,11.0,17.0,66,0.00,,---,0.01,VWS V15.00,2014-03-01 20:45:00,
2014-03-01 13:00:00,65.0,54.2,29.67,SE,146,9.0,18.0,68,0.00,,---,0.01,VWS V15.00,2014-03-01 21:00:00,
2014-03-01 13:15:00,65.0,52.1,29.67,SE,145,6.0,14.0,63,0.00,,---,0.01,VWS V15.00,2014-03-01 21:15:00,
2014-03-01 13:30:00,64.9,53.7,29.66,SSE,161,19.0,24.0,67,0.00,,---,0.01,VWS V15.00,2014-03-01 21:30:00,
2014-03-01 13:45:00,64.6,53.0,29.66,SSE,157,15.0,22.0,66,0.00,,---,0.01,VWS V15.00,2014-03-01 21:45:00,
2014-03-01 14:00:00,64.4,52.4,29.66,SE,143,19.0,19.0,65,0.00,,---,0.01,VWS V15.00,2014-03-01 22:00:00,
2014-03-01 14:15:00,64.6,53.0,29.66,SE,137,11.0,23.0,66,0.00,,---,0.01,VWS V15.00,2014-03-01 22:15:00,
2014-03-01 14:30:00,64.7,53.5,29.66,SE,140,15.0,22.0,67,0.00,,---,0.01,VWS V15.00,2014-03-01 22:30:00,
2014-03-01 14:45:00,63.9,53.5,29.66,SE,134,17.0,23.0,69,0.00,,---,0.01,VWS V15.00,2014-03-01 22:45:00,
2014-03-01 15:00:00,63.9,53.5,29.66,SE,140,15.0,21.0,69,0.00,,---,0.01,VWS V15.00,2014-03-01 23:00:00,
2014-03-01 15:15:00,64.5,53.3,29.67,SSE,155,16.0,23.0,67,0.00,,---,0.01,VWS V15.00,2014-03-01 23:15:00,
2014-03-01 15:30:00,63.8,53.0,29.67,SSE,151,13.0,27.0,68,0.00,,---,0.01,VWS V15.00,2014-03-01 23:30:00,
2014-03-01 15:45:00,63.8,52.7,29.67,SSE,147,18.0,22.0,67,0.00,,---,0.01,VWS V15.00,2014-03-01 23:45:00,
2014-03-01 16:00:00,62.7,53.2,29.67,SE,144,10.0,25.0,71,0.00,,---,0.01,VWS V15.00,2014-03-02 00:00:00,
2014-03-01 16:15:00,62.6,52.3,29.68,SE,144,17.0,25.0,69,0.00,,---,0.01,VWS V15.00,2014-03-02 00:15:00,
2014-03-01 16:30:00,63.3,52.2,29.68,SSE,150,15.0,20.0,67,0.00,,---,0.01,VWS V15.00,2014-03-02 00:30:00,
2014-03-01 16:45:00,63.4,51.9,29.67,SSE,154,13.0,26.0,66,0.00,,---,0.01,VWS V15.00,2014-03-02 00:45:00,
2014-03-01 17:00:00,63.1,52.4,29.68,SSE,157,12.0,20.0,68,0.00,,---,0.01,VWS V15.00,2014-03-02 01:00:00,
2014-03-01 17:15:00,62.2,51.9,29.68,SE,138,15.0,19.0,69,0.00,,---,0.01,VWS V15.00,2014-03-02 01:15:00,
2014-03-01 17:30:00,61.3,50.7,29.68,SE,134,16.0,22.0,68,0.00,,---,0.01,VWS V15.00,2014-03-02 01:30:00,
2014-03-01 17:45:00,60.3,50.9,29.69,SSE,147,12.0,20.0,71,0.00,,---,0.01,VWS V15.00,2014-03-02 01:45:00,
2014-03-01 18:00:00,59.8,51.5,29.70,SE,145,12.0,19.0,74,0.00,,---,0.01,VWS V15.00,2014-03-02 02:00:00,
2014-03-01 18:15:00,59.3,51.4,29.72,SSE,156,7.0,13.0,75,0.00,,---,0.01,VWS V15.00,2014-03-02 02:15:00,
2014-03-01 18:30:00,59.2,51.7,29.73,SSE,159,9.0,12.0,76,0.00,,---,0.01,VWS V15.00,2014-03-02 02:30:00,
2014-03-01 18:45:00,58.8,52.0,29.74,SSE,159,0.0,9.0,78,0.00,,---,0.01,VWS V15.00,2014-03-02 02:45:00,
2014-03-01 19:00:00,58.4,51.2,29.75,South,182,0.0,5.0,77,0.00,,---,0.01,VWS V15.00,2014-03-02 03:00:00,
2014-03-01 19:15:00,58.1,51.3,29.76,West,263,0.0,5.0,78,0.00,,---,0.01,VWS V15.00,2014-03-02 03:15:00,
2014-03-01 19:30:00,57.9,51.8,29.76,WNW,300,4.0,5.0,80,0.00,,---,0.01,VWS V15.00,2014-03-02 03:30:00,
2014-03-01 19:45:00,57.7,51.9,29.77,WNW,302,4.0,5.0,81,0.00,,---,0.01,VWS V15.00,2014-03-02 03:45:00,
2014-03-01 20:00:00,57.4,51.6,29.77,WNW,298,1.0,5.0,81,0.00,,---,0.01,VWS V15.00,2014-03-02 04:00:00,
2014-03-01 20:15:00,57.0,50.9,29.77,WNW,298,0.0,1.0,80,0.00,,---,0.01,VWS V15.00,2014-03-02 04:15:00,
2014-03-01 20:30:00,56.7,50.3,29.77,WNW,298,0.0,2.0,79,0.00,,---,0.01,VWS V15.00,2014-03-02 04:30:00,
2014-03-01 20:45:00,56.5,50.4,29.77,WNW,298,0.0,0.0,80,0.00,,---,0.01,VWS V15.00,2014-03-02 04:45:00,
2014-03-01 21:00:00,56.3,50.2,29.78,WNW,298,0.0,0.0,80,0.00,,---,0.01,VWS V15.00,2014-03-02 05:00:00,
2014-03-01 21:15:00,56.4,50.7,29.79,North,0,0.0,0.0,81,0.00,,---,0.01,VWS V15.00,2014-03-02 05:15:00,
2014-03-01 21:30:00,56.6,50.8,29.80,WNW,292,0.0,4.0,81,0.00,,---,0.01,VWS V15.00,2014-03-02 05:30:00,
2014-03-01 22:00:00,57.7,49.8,29.80,ESE,111,4.0,6.0,75,0.00,,---,0.01,VWS V15.00,2014-03-02 06:00:00,
2014-03-01 22:15:00,57.8,49.2,29.81,SE,124,2.0,5.0,73,0.00,,---,0.01,VWS V15.00,2014-03-02 06:15:00,
2014-03-01 22:30:00,57.7,49.5,29.81,SE,125,1.0,7.0,74,0.00,,---,0.01,VWS V15.00,2014-03-02 06:30:00,
2014-03-01 22:45:00,57.6,49.7,29.81,ESE,123,0.0,4.0,75,0.00,,---,0.01,VWS V15.00,2014-03-02 06:45:00,
2014-03-01 23:00:00,57.3,50.2,29.81,ESE,123,0.0,1.0,77,0.00,,---,0.01,VWS V15.00,2014-03-02 07:00:00,
2014-03-01 23:15:00,56.9,50.1,29.81,ESE,123,0.0,1.0,78,0.00,,---,0.01,VWS V15.00,2014-03-02 07:15:00,
2014-03-01 23:30:00,56.4,49.6,29.81,SE,130,4.0,9.0,78,0.00,,---,0.01,VWS V15.00,2014-03-02 07:30:00,
2014-03-01 23:45:00,55.8,49.4,29.81,SE,134,2.0,11.0,79,0.00,,---,0.01,VWS V15.00,2014-03-02 07:45:00,